Time;durP1;ratioP1;P1;durP2;ratioP2;P2;SDS_P1;SDS_P2;PMS_P1;PMS_P2;Temp;Humidity;BMP_temperature;BMP_pressure;BME280_temperature;BME280_humidity;BME280_pressure;Samples;Min_cycle;Max_cycle;Signal;HPM_P1;HPM_P2
2020/12/05 00:00:09;;;;;;;22.63;13.48;;;4.20;81.70;;;3.30;66.04;93110.91;5056323;28;20242;-81
2020/12/05 00:02:39;;;;;;;24.02;14.45;;;4.20;81.60;;;3.33;66.37;93116.50;5055769;28;20223;-81
2020/12/05 00:05:06;;;;;;;24.27;14.55;;;4.20;81.60;;;3.34;66.56;93122.47;5072144;28;20231;-81
2020/12/05 00:07:34;;;;;;;21.90;13.95;;;4.20;81.60;;;3.35;66.01;93119.69;5055596;28;20208;-81
2020/12/05 00:10:00;;;;;;;23.65;14.13;;;4.20;81.50;;;3.34;66.16;93110.34;5055759;28;20314;-81
2020/12/05 00:12:27;;;;;;;23.77;14.90;;;4.20;81.60;;;3.34;66.61;93107.75;5055697;28;20657;-81
2020/12/05 00:14:55;;;;;;;24.02;14.48;;;4.30;81.60;;;3.38;66.12;93123.69;5076178;28;20250;-81
2020/12/05 00:17:22;;;;;;;23.55;14.18;;;4.30;81.60;;;3.35;66.32;93129.25;5092506;28;20201;-82
2020/12/05 00:19:49;;;;;;;24.05;14.82;;;4.30;81.50;;;3.35;66.48;93129.25;5092493;28;20246;-81
2020/12/05 00:22:18;;;;;;;23.15;13.80;;;4.30;81.50;;;3.38;66.14;93138.44;5092254;28;20191;-80
2020/12/05 00:24:45;;;;;;;22.55;13.15;;;4.30;81.40;;;3.36;66.18;93128.28;5075182;28;20705;-82
2020/12/05 00:27:12;;;;;;;22.70;13.25;;;4.30;81.30;;;3.33;66.08;93142.41;5092130;28;20253;-81
2020/12/05 00:29:38;;;;;;;22.60;13.40;;;4.30;81.30;;;3.29;66.29;93146.38;5080452;28;20215;-82
2020/12/05 00:32:06;;;;;;;21.98;13.48;;;4.30;81.30;;;3.28;66.40;93147.34;5055003;28;20195;-81
2020/12/05 00:34:33;;;;;;;21.98;12.68;;;4.30;81.20;;;3.27;66.20;93142.38;5038979;28;20318;-81
2020/12/05 00:37:02;;;;;;;22.00;12.70;;;4.30;81.30;;;3.26;66.66;93135.56;5055308;28;20188;-81
2020/12/05 00:39:29;;;;;;;22.08;12.88;;;4.30;81.50;;;3.27;66.71;93140.59;5060859;28;20553;-81
2020/12/05 00:41:56;;;;;;;21.45;12.30;;;4.30;81.50;;;3.32;66.68;93137.41;5075374;28;20207;-81
2020/12/05 00:44:23;;;;;;;21.63;12.48;;;4.20;81.70;;;3.33;66.74;93149.38;5058575;28;20219;-81
2020/12/05 00:46:52;;;;;;;21.73;13.05;;;4.30;81.70;;;3.34;67.05;93143.22;5074737;28;20202;-82
2020/12/05 00:49:19;;;;;;;23.15;13.77;;;4.30;81.80;;;3.41;66.79;93146.63;5075076;28;20584;-82
2020/12/05 00:51:49;;;;;;;24.52;14.20;;;4.30;81.80;;;3.43;66.67;93152.44;5074847;28;20226;-81
2020/12/05 00:54:16;;;;;;;23.20;13.55;;;4.30;81.80;;;3.43;66.32;93142.06;5091743;28;20553;-81
2020/12/05 00:56:46;;;;;;;23.80;13.95;;;4.30;81.70;;;3.46;66.90;93146.84;5091881;28;20251;-82
2020/12/05 00:59:13;;;;;;;23.90;14.43;;;4.40;81.80;;;3.47;66.70;93139.91;5054968;28;20704;-82
2020/12/05 01:01:39;;;;;;;23.80;14.55;;;4.40;81.70;;;3.46;66.77;93135.69;5054759;28;20191;-82
2020/12/05 01:04:06;;;;;;;23.30;14.73;;;4.40;81.70;;;3.48;66.52;93131.13;5054692;28;20222;-81
2020/12/05 01:06:33;;;;;;;22.90;13.82;;;4.40;81.70;;;3.46;66.87;93140.88;5054725;28;20287;-82
2020/12/05 01:08:59;;;;;;;22.42;13.88;;;4.40;81.70;;;3.51;66.49;93152.25;5071117;28;20647;-81
2020/12/05 01:11:26;;;;;;;22.88;14.80;;;4.40;81.60;;;3.52;66.66;93146.09;5038347;28;20649;-80
2020/12/05 01:13:53;;;;;;;26.05;15.15;;;4.50;81.70;;;3.51;66.53;93141.09;5054774;28;20673;-82
2020/12/05 01:16:20;;;;;;;20.88;13.45;;;4.40;81.60;;;3.48;66.77;93125.94;5069735;28;20198;-82
2020/12/05 01:18:47;;;;;;;24.85;14.32;;;4.40;81.60;;;3.48;66.63;93137.09;5091301;28;20708;-81
2020/12/05 01:21:15;;;;;;;23.08;14.60;;;4.40;81.60;;;3.51;66.62;93125.56;5091448;28;20252;-81
2020/12/05 01:23:42;;;;;;;19.88;12.40;;;4.50;81.70;;;3.51;66.54;93105.59;5058290;28;20218;-82
2020/12/05 01:26:09;;;;;;;21.42;12.38;;;4.40;81.60;;;3.48;66.38;93100.03;5074533;28;20222;-82
2020/12/05 01:28:36;;;;;;;21.58;13.10;;;4.60;81.70;;;3.55;66.54;93118.97;5074536;28;20260;-81
2020/12/05 01:31:05;;;;;;;21.92;12.77;;;4.50;81.70;;;3.57;66.47;93113.63;5074484;28;20210;-82
2020/12/05 01:33:32;;;;;;;20.88;12.35;;;4.50;81.70;;;3.57;66.55;93093.66;5073587;28;20217;-81
2020/12/05 01:36:00;;;;;;;18.27;11.65;;;4.50;81.70;;;3.59;66.00;93091.69;5054537;28;20223;-82
2020/12/05 01:38:28;;;;;;;16.13;10.80;;;4.50;81.70;;;3.61;66.54;93088.91;5054540;28;20195;-81
2020/12/05 01:40:58;;;;;;;16.42;9.98;;;4.50;81.70;;;3.63;66.82;93098.06;5054569;28;20191;-82
2020/12/05 01:43:26;;;;;;;14.48;9.68;;;4.50;81.80;;;3.66;66.68;93092.53;5054236;28;20191;-82
2020/12/05 01:46:01;;;;;;;16.05;9.88;;;4.50;81.90;;;3.76;67.08;93086.97;5066042;28;20226;-81
2020/12/05 01:48:28;;;;;;;14.60;9.10;;;4.60;82.20;;;3.83;67.22;93081.78;5091398;28;20203;-81
2020/12/05 01:50:55;;;;;;;14.23;9.32;;;4.60;82.30;;;3.95;67.17;93079.41;5090975;28;20195;-81
2020/12/05 01:53:22;;;;;;;13.07;8.85;;;4.60;82.40;;;4.03;66.71;93070.66;5090176;28;20246;-81
2020/12/05 01:55:50;;;;;;;12.38;8.15;;;4.70;82.40;;;4.08;66.55;93057.91;5074326;28;20249;-80
2020/12/05 01:58:18;;;;;;;12.68;7.95;;;4.80;82.40;;;4.07;67.03;93049.31;5074204;28;20202;-80
2020/12/05 02:00:46;;;;;;;11.85;7.50;;;4.80;82.40;;;4.19;66.97;93046.94;5057306;28;20218;-81
2020/12/05 02:03:17;;;;;;;13.32;9.00;;;4.90;82.50;;;4.29;67.66;93036.16;5058010;28;20213;-81
2020/12/05 02:06:14;;;;;;;12.90;8.18;;;5.00;82.80;;;4.41;67.39;93018.97;5090850;28;20215;-81
2020/12/05 02:09:05;;;;;;;13.98;9.13;;;5.10;83.00;;;4.54;67.63;93020.78;5074270;28;20219;-80
2020/12/05 02:11:39;;;;;;;13.82;8.77;;;5.20;83.10;;;4.65;67.24;93032.31;5090746;28;20663;-80
2020/12/05 02:14:10;;;;;;;12.45;8.68;;;5.20;83.00;;;4.75;66.96;93032.72;5074274;28;20203;-80
2020/12/05 02:16:39;;;;;;;14.02;8.50;;;5.30;83.00;;;4.84;66.56;93040.31;5070269;28;20215;-80
2020/12/05 02:19:12;;;;;;;12.20;8.60;;;5.50;82.90;;;4.89;66.68;93043.09;5071589;28;20226;-79
2020/12/05 02:21:40;;;;;;;13.48;9.07;;;5.60;82.80;;;4.95;66.43;93052.66;5090732;28;20195;-81
2020/12/05 02:24:10;;;;;;;13.98;8.88;;;5.60;82.70;;;5.00;66.59;93050.25;5074306;28;20250;-80
2020/12/05 02:26:37;;;;;;;12.63;8.43;;;5.70;82.50;;;5.02;66.11;93061.25;5057923;28;20251;-81
2020/12/05 02:29:05;;;;;;;14.82;8.98;;;5.70;82.40;;;5.05;66.30;93076.41;5057623;28;20226;-80
2020/12/05 02:31:33;;;;;;;11.77;8.00;;;5.80;82.30;;;5.05;66.53;93091.22;5057136;28;20253;-80
2020/12/05 02:34:00;;;;;;;28.00;12.98;;;5.80;82.20;;;5.06;66.09;93092.81;5073805;28;20278;-80
2020/12/05 02:36:32;;;;;;;15.70;9.55;;;5.90;82.10;;;5.05;66.14;93086.03;5064625;28;20202;-80
2020/12/05 02:39:06;;;;;;;12.85;7.97;;;5.90;82.10;;;5.05;66.21;93104.22;5055045;28;20272;-80
2020/12/05 02:41:41;;;;;;;13.07;8.57;;;5.90;81.80;;;5.04;65.92;93103.44;5080120;28;20239;-79
2020/12/05 02:44:08;;;;;;;12.55;8.63;;;5.90;81.70;;;5.05;65.98;93101.63;5070784;28;20221;-80
2020/12/05 02:46:35;;;;;;;12.00;8.13;;;5.90;81.70;;;4.96;66.01;93088.84;5073985;28;20214;-80
2020/12/05 02:49:02;;;;;;;12.10;7.82;;;5.90;81.60;;;4.99;65.95;93094.63;5086861;28;20231;-81
2020/12/05 02:51:29;;;;;;;10.85;7.50;;;5.90;81.50;;;4.95;66.17;93095.03;5078290;28;20190;-80
2020/12/05 02:53:58;;;;;;;11.15;7.53;;;5.90;81.60;;;4.97;66.04;93105.25;5057561;28;20226;-80
2020/12/05 02:56:25;;;;;;;11.55;7.95;;;5.90;81.60;;;4.94;66.24;93109.03;5055201;28;20206;-81
2020/12/05 02:58:52;;;;;;;10.90;7.38;;;5.90;81.70;;;4.94;66.47;93103.03;5085223;28;20203;-81
2020/12/05 03:01:19;;;;;;;11.23;7.43;;;5.90;81.80;;;4.98;66.21;93117.22;5074303;28;20586;-80
2020/12/05 03:03:45;;;;;;;11.77;7.72;;;5.90;81.80;;;4.99;66.48;93118.03;5070981;28;20269;-81
2020/12/05 03:06:12;;;;;;;9.43;6.90;;;5.90;81.90;;;4.99;66.50;93110.22;5091351;28;20564;-81
2020/12/05 03:08:39;;;;;;;11.80;7.55;;;5.90;82.00;;;5.02;66.59;93108.03;5074267;28;20308;-81
2020/12/05 03:11:06;;;;;;;11.80;7.45;;;5.90;82.00;;;5.04;66.71;93113.81;5058601;28;20217;-80
2020/12/05 03:13:33;;;;;;;11.60;7.40;;;5.90;82.80;;;5.06;66.22;93117.00;5090972;28;20205;-81
2020/12/05 03:15:59;;;;;;;11.23;7.60;;;5.90;82.00;;;5.07;66.20;93121.19;5073573;28;20281;-82
2020/12/05 03:18:27;;;;;;;11.13;6.97;;;5.90;82.00;;;5.07;66.29;93117.81;5090682;28;20222;-82
2020/12/05 03:20:54;;;;;;;11.15;7.47;;;5.90;81.90;;;5.05;66.22;93104.22;5075079;28;20201;-82
2020/12/05 03:23:21;;;;;;;12.20;8.27;;;5.90;81.80;;;5.02;66.31;93102.03;5072557;28;20199;-81
2020/12/05 03:25:48;;;;;;;11.70;7.63;;;5.90;81.70;;;4.99;66.32;93100.63;5073494;28;20306;-81
2020/12/05 03:28:15;;;;;;;10.43;7.45;;;5.90;81.70;;;4.98;66.58;93109.44;5090690;28;20244;-81
2020/12/05 03:30:41;;;;;;;11.27;7.47;;;5.90;81.80;;;4.96;66.17;93122.59;5086851;28;20554;-82
2020/12/05 03:33:12;;;;;;;10.68;7.38;;;5.90;81.70;;;4.94;66.55;93114.25;5054934;28;20229;-81
2020/12/05 03:35:39;;;;;;;12.05;8.00;;;5.90;81.80;;;4.97;66.80;93136.41;5071654;28;20203;-81
2020/12/05 03:38:05;;;;;;;10.38;7.20;;;5.90;82.00;;;4.97;66.60;93128.63;5056083;28;20294;-81
2020/12/05 03:40:32;;;;;;;10.57;8.00;;;5.90;82.00;;;4.98;66.61;93122.44;5072816;28;20754;-81
2020/12/05 03:42:59;;;;;;;13.95;9.00;;;5.90;82.10;;;5.03;66.79;93138.22;5070895;28;20272;-82
2020/12/05 03:45:26;;;;;;;11.52;7.88;;;5.90;82.20;;;5.07;66.47;93142.00;5078930;28;20222;-82
2020/12/05 03:47:53;;;;;;;12.20;7.75;;;5.90;82.10;;;5.08;66.49;93146.19;5091452;28;20186;-82
2020/12/05 03:50:19;;;;;;;12.93;8.70;;;5.90;82.00;;;5.07;66.64;93152.38;5091053;28;20219;-82
2020/12/05 03:52:46;;;;;;;13.43;9.05;;;5.90;82.00;;;5.06;66.46;93142.19;5073758;28;20281;-82
2020/12/05 03:55:13;;;;;;;11.60;8.40;;;5.90;82.00;;;5.06;66.51;93118.81;5054332;28;20267;-82
2020/12/05 03:57:40;;;;;;;14.43;9.63;;;5.90;82.00;;;5.04;66.46;93128.59;5071113;28;20204;-82
2020/12/05 04:00:07;;;;;;;14.25;9.05;;;5.90;81.90;;;5.03;66.47;93127.81;5039798;28;20689;-82
2020/12/05 04:02:34;;;;;;;12.43;8.75;;;5.90;81.90;;;5.01;66.21;93129.81;5055981;28;20241;-81
2020/12/05 04:05:01;;;;;;;13.32;9.13;;;5.90;81.90;;;5.00;66.36;93141.19;5072094;28;20696;-82
2020/12/05 04:07:27;;;;;;;13.80;9.52;;;5.90;81.90;;;4.94;66.26;93131.59;5056069;28;20602;-82
2020/12/05 04:09:54;;;;;;;12.90;9.20;;;5.90;81.80;;;4.93;66.75;93138.63;5056026;28;20215;-82
2020/12/05 04:12:20;;;;;;;12.50;8.40;;;5.90;81.90;;;4.95;66.65;93141.78;5055604;28;20282;-83
2020/12/05 04:14:47;;;;;;;14.13;9.07;;;5.90;81.90;;;4.92;66.59;93144.00;5058500;28;20223;-82
2020/12/05 04:17:14;;;;;;;13.85;9.40;;;6.00;82.10;;;4.97;66.49;93149.41;5092214;28;20206;-82
2020/12/05 04:19:40;;;;;;;15.30;9.50;;;5.90;82.00;;;4.96;66.36;93147.81;5075669;28;20213;-82
2020/12/05 04:22:07;;;;;;;15.40;10.07;;;5.90;82.00;;;4.96;66.89;93133.00;5092184;28;20675;-81
2020/12/05 04:24:35;;;;;;;17.30;10.68;;;5.90;82.00;;;4.97;66.77;93139.81;5092481;28;20218;-82
2020/12/05 04:27:02;;;;;;;17.23;11.68;;;5.80;82.10;;;4.95;66.78;93134.00;5091932;28;20294;-82
2020/12/05 04:29:28;;;;;;;16.20;11.25;;;5.90;82.30;;;5.04;66.73;93136.41;5092264;28;20213;-81
2020/12/05 04:31:55;;;;;;;16.58;10.98;;;5.90;82.30;;;5.05;67.04;93141.38;5091862;28;20290;-82
2020/12/05 04:34:22;;;;;;;17.38;11.77;;;5.90;82.40;;;5.07;67.18;93143.81;5092036;28;20218;-82
2020/12/05 04:36:49;;;;;;;16.67;11.05;;;5.90;82.40;;;5.11;66.61;93139.78;5092013;28;20190;-80
2020/12/05 04:39:16;;;;;;;17.00;10.98;;;5.90;82.40;;;5.14;66.97;93134.19;5075258;28;20226;-82
2020/12/05 04:41:43;;;;;;;19.52;12.15;;;5.90;82.40;;;5.17;67.17;93131.19;5091782;28;20289;-81
2020/12/05 04:44:10;;;;;;;20.52;12.38;;;6.00;82.40;;;5.17;66.84;93146.78;5092153;28;20214;-81
2020/12/05 04:46:38;;;;;;;23.02;13.43;;;6.00;82.40;;;5.17;67.13;93149.38;5091504;28;20218;-81
2020/12/05 04:49:06;;;;;;;21.92;14.13;;;6.00;82.40;;;5.18;66.86;93150.97;5074893;28;20243;-81
2020/12/05 04:51:38;;;;;;;22.85;13.65;;;6.00;82.40;;;5.20;67.26;93158.56;5084489;28;20245;-81
2020/12/05 04:54:06;;;;;;;24.27;14.55;;;6.10;82.50;;;5.19;66.83;93160.38;5055050;28;20697;-82
2020/12/05 04:56:38;;;;;;;21.80;14.07;;;6.00;82.50;;;5.21;67.21;93160.16;5071665;28;20187;-81
2020/12/05 04:59:11;;;;;;;22.83;14.88;;;6.10;82.50;;;5.23;66.95;93173.75;5055021;28;20219;-82
2020/12/05 05:01:39;;;;;;;25.70;15.95;;;6.00;82.50;;;5.24;67.02;93175.38;5055247;28;20178;-81
2020/12/05 05:04:06;;;;;;;26.55;15.80;;;6.10;82.50;;;5.22;66.79;93185.94;5071533;28;20207;-82
2020/12/05 05:06:33;;;;;;;24.58;15.20;;;6.10;82.40;;;5.23;67.07;93200.53;5071455;28;20313;-81
2020/12/05 05:09:00;;;;;;;24.75;16.30;;;6.10;82.50;;;5.21;66.83;93196.56;5054558;28;20302;-82
2020/12/05 05:11:28;;;;;;;24.85;15.32;;;6.10;82.40;;;5.21;66.62;93215.56;5055177;28;20241;-81
2020/12/05 05:14:19;;;;;;;25.77;16.65;;;6.10;82.30;;;5.13;66.95;93202.75;5071228;28;20277;-82
2020/12/05 05:16:45;;;;;;;26.88;16.98;;;6.10;82.30;;;5.17;66.83;93210.97;5090286;28;20205;-82
2020/12/05 05:19:21;;;;;;;26.75;16.25;;;6.10;82.30;;;5.15;66.97;93213.75;5091273;28;20239;-81
2020/12/05 05:21:49;;;;;;;25.92;15.95;;;6.10;82.40;;;5.16;66.64;93222.34;5091397;28;20218;-81
2020/12/05 05:24:19;;;;;;;27.15;16.38;;;6.00;82.30;;;5.16;66.85;93204.94;5091294;28;20271;-81
2020/12/05 05:27:09;;;;;;;26.50;16.23;;;6.00;82.30;;;5.15;66.69;93192.16;5090716;28;20202;-80
2020/12/05 05:29:42;;;;;;;26.20;16.70;;;6.00;82.40;;;5.09;66.67;93180.75;5071081;28;20772;-81
2020/12/05 05:34:36;;;;;;;28.40;17.58;;;6.00;82.50;;;5.15;67.15;93198.19;5074211;28;20272;-81
2020/12/05 05:37:22;;;;;;;29.25;18.48;;;6.00;82.50;;;5.19;67.44;93211.53;5074315;28;20207;-80
2020/12/05 05:39:53;;;;;;;31.25;18.95;;;6.00;82.70;;;5.22;67.34;93211.94;5051784;28;20236;-81
2020/12/05 05:42:36;;;;;;;33.35;19.67;;;6.00;82.70;;;5.25;67.11;93208.16;5038153;28;20183;-80
2020/12/05 05:45:27;;;;;;;30.95;18.92;;;6.10;82.80;;;5.27;67.28;93230.34;5053981;28;20222;-81
2020/12/05 05:48:04;;;;;;;31.55;19.67;;;6.10;82.90;;;5.31;67.12;93229.94;5054112;28;20278;-81
2020/12/05 05:50:36;;;;;;;31.80;19.45;;;6.10;82.80;;;5.32;67.59;93228.94;5054321;28;20253;-81
2020/12/05 05:53:07;;;;;;;30.55;18.00;;;6.10;82.80;;;5.34;67.02;93222.53;5054381;28;20197;-80
2020/12/05 05:55:49;;;;;;;32.88;19.02;;;6.10;82.80;;;5.36;67.05;93227.53;5076223;28;20222;-80
2020/12/05 05:58:20;;;;;;;32.22;19.63;;;6.10;82.80;;;5.36;67.18;93235.31;5061431;28;20206;-80
2020/12/05 06:00:53;;;;;;;32.80;19.58;;;6.20;82.80;;;5.35;67.17;93233.75;5078318;28;20709;-80
2020/12/05 06:03:25;;;;;;;31.25;19.25;;;6.20;82.70;;;5.36;67.22;93237.94;5061341;28;20195;-80
2020/12/05 06:05:59;;;;;;;33.47;19.80;;;6.20;82.70;;;5.33;66.93;93235.75;5061482;28;20226;-81
2020/12/05 06:08:30;;;;;;;27.52;17.50;;;6.20;82.60;;;5.31;67.10;93241.16;5077747;28;20202;-80
2020/12/05 06:11:02;;;;;;;27.60;17.38;;;6.20;82.50;;;5.29;66.68;93256.94;5078287;28;20207;-80
2020/12/05 06:13:32;;;;;;;31.85;18.83;;;6.20;82.50;;;5.25;66.96;93250.53;5094600;28;20716;-80
2020/12/05 06:16:01;;;;;;;30.65;19.00;;;6.10;82.40;;;5.24;67.26;93251.53;5081604;28;20265;-79
2020/12/05 06:18:28;;;;;;;30.10;18.10;;;6.20;82.50;;;5.17;67.08;93248.13;5089036;28;20294;-79
2020/12/05 06:20:56;;;;;;;28.80;17.60;;;6.10;82.40;;;5.16;67.24;93238.72;5075925;28;20226;-80
2020/12/05 06:23:45;;;;;;;30.77;17.10;;;6.10;82.40;;;5.18;66.76;93235.97;5059826;28;20398;-80
2020/12/05 06:26:27;;;;;;;27.02;16.40;;;6.10;82.50;;;5.13;67.04;93233.94;5076089;28;20206;-80
2020/12/05 06:28:55;;;;;;;27.38;16.23;;;6.10;82.50;;;5.17;66.98;93244.75;5058775;28;20463;-80
2020/12/05 06:31:44;;;;;;;25.20;16.25;;;6.10;82.40;;;5.16;66.96;93250.94;5058377;28;20604;-82
2020/12/05 06:34:34;;;;;;;26.95;16.90;;;6.00;82.50;;;5.12;66.94;93292.91;5058288;28;20232;-81
2020/12/05 06:37:03;;;;;;;24.05;15.57;;;6.00;82.60;;;5.16;67.38;93302.91;5076516;28;20195;-81
2020/12/05 06:39:31;;;;;;;26.50;16.52;;;6.00;82.50;;;5.17;67.56;93300.13;5077006;28;20248;-81
2020/12/05 06:41:57;;;;;;;28.20;17.27;;;6.00;82.70;;;5.16;67.54;93280.31;5094125;28;20228;-82
2020/12/05 06:44:33;;;;;;;30.75;17.55;;;6.00;82.80;;;5.22;67.38;93266.53;5058815;28;20660;-81
2020/12/05 06:47:08;;;;;;;28.67;17.70;;;6.00;82.90;;;5.22;67.09;93271.72;5056537;28;20249;-81
2020/12/05 06:49:38;;;;;;;31.67;17.35;;;6.00;82.80;;;5.24;67.18;93279.34;5068882;28;20229;-81
2020/12/05 06:52:24;;;;;;;27.33;16.30;;;6.00;82.70;;;5.22;66.97;93276.13;5093455;28;20199;-82
2020/12/05 06:55:09;;;;;;;25.90;15.40;;;6.10;82.90;;;5.23;67.29;93269.94;5094024;28;20738;-81
2020/12/05 06:57:37;;;;;;;24.27;15.88;;;6.10;82.90;;;5.23;67.30;93282.94;5060300;28;20190;-81
2020/12/05 07:00:25;;;;;;;26.20;16.45;;;6.10;82.80;;;5.17;66.88;93275.94;5077014;28;20423;-82
2020/12/05 07:03:04;;;;;;;28.98;16.33;;;6.10;82.80;;;5.21;67.16;93277.13;5059901;28;20221;-82
2020/12/05 07:05:51;;;;;;;30.30;17.27;;;6.10;82.70;;;5.20;67.26;93270.31;5066677;28;20704;-81
2020/12/05 07:08:37;;;;;;;27.65;16.20;;;6.10;82.80;;;5.20;66.94;93283.31;5037887;28;20234;-81
2020/12/05 07:11:09;;;;;;;27.00;16.45;;;6.10;82.80;;;5.19;67.53;93281.72;5072436;28;20214;-82
2020/12/05 07:13:46;;;;;;;26.10;15.45;;;6.10;82.70;;;5.19;67.22;93282.53;5090237;28;20255;-81
2020/12/05 07:16:23;;;;;;;26.33;16.05;;;6.10;82.80;;;5.18;67.38;93286.13;5058213;28;20233;-82
2020/12/05 07:18:54;;;;;;;26.27;15.05;;;6.00;82.90;;;5.21;67.63;93308.31;5057108;28;20313;-81
2020/12/05 07:21:23;;;;;;;23.65;14.85;;;6.10;82.90;;;5.23;67.52;93312.31;5074980;28;20202;-81
2020/12/05 07:23:51;;;;;;;24.77;15.90;;;6.10;82.90;;;5.26;67.73;93298.13;5092912;28;20634;-81
2020/12/05 07:26:18;;;;;;;26.73;16.42;;;6.10;83.00;;;5.29;67.78;93302.94;5076370;28;20230;-82
2020/12/05 07:28:51;;;;;;;25.30;15.63;;;6.20;83.20;;;5.31;67.99;93298.34;5074913;28;20457;-81
2020/12/05 07:31:20;;;;;;;27.48;16.13;;;6.10;83.10;;;5.35;67.81;93290.94;5076222;28;20218;-81
2020/12/05 07:33:47;;;;;;;28.58;16.90;;;6.10;83.20;;;5.38;67.87;93299.16;5075913;28;20805;-81
2020/12/05 07:36:17;;;;;;;25.00;15.73;;;6.20;83.30;;;5.40;67.92;93286.72;5076252;28;20199;-82
2020/12/05 07:38:46;;;;;;;28.35;16.80;;;6.20;83.30;;;5.48;67.97;93301.34;5092692;28;20210;-81
2020/12/05 07:41:20;;;;;;;26.85;16.05;;;6.30;83.40;;;5.49;67.68;93305.53;5059779;28;20298;-82
2020/12/05 07:43:48;;;;;;;24.58;15.40;;;6.30;83.40;;;5.56;67.84;93302.94;5072627;28;20269;-82
2020/12/05 07:46:16;;;;;;;26.20;15.77;;;6.30;83.40;;;5.57;67.90;93301.94;5072656;28;20216;-82
2020/12/05 07:48:43;;;;;;;26.75;15.57;;;6.30;83.40;;;5.60;67.66;93314.53;5073411;28;20219;-82
2020/12/05 07:51:18;;;;;;;26.08;15.57;;;6.40;83.50;;;5.67;67.68;93335.34;5076538;28;20195;-81
2020/12/05 07:53:46;;;;;;;24.98;15.00;;;6.40;83.60;;;5.69;67.76;93334.16;5093044;28;20627;-82
2020/12/05 07:56:19;;;;;;;25.42;16.13;;;6.40;83.50;;;5.74;67.54;93325.75;5083123;28;20298;-82
2020/12/05 07:58:55;;;;;;;25.25;15.30;;;6.50;83.50;;;5.78;67.93;93334.75;5056269;28;20286;-82
2020/12/05 08:01:28;;;;;;;27.60;16.48;;;6.50;83.50;;;5.81;67.60;93328.31;5056127;28;20206;-81
2020/12/05 08:04:19;;;;;;;27.98;16.45;;;6.50;83.40;;;5.80;67.72;93343.16;5055544;28;20223;-82
2020/12/05 08:07:35;;;;;;;24.38;15.75;;;6.60;83.40;;;5.82;67.76;93363.75;5072087;28;20284;-81
2020/12/05 08:10:22;;;;;;;27.50;15.73;;;6.60;83.40;;;5.81;67.42;93362.16;5056009;28;20234;-81
2020/12/05 08:13:24;;;;;;;25.90;15.18;;;6.60;83.30;;;5.81;67.29;93362.97;5055676;28;20198;-82
2020/12/05 08:16:05;;;;;;;25.08;14.45;;;6.60;83.20;;;5.81;67.54;93356.94;5039581;28;20213;-82
2020/12/05 08:18:37;;;;;;;22.92;15.13;;;6.60;83.10;;;5.81;67.49;93365.56;5071076;28;20289;-82
2020/12/05 08:21:06;;;;;;;23.00;14.88;;;6.60;83.20;;;5.83;67.39;93381.75;5075614;28;20256;-81
2020/12/05 08:23:39;;;;;;;25.35;15.27;;;6.60;83.10;;;5.86;67.59;93378.78;5075694;28;20187;-81
2020/12/05 08:26:09;;;;;;;22.13;14.00;;;6.60;83.20;;;5.90;67.59;93377.34;5092292;28;20211;-82
2020/12/05 08:28:44;;;;;;;23.83;15.02;;;6.60;83.20;;;5.95;67.38;93371.56;5075339;28;20314;-83
2020/12/05 08:31:13;;;;;;;26.63;16.27;;;6.70;83.30;;;5.96;67.43;93360.16;5075542;28;20652;-81
2020/12/05 08:33:49;;;;;;;26.33;14.95;;;6.70;83.20;;;5.95;67.46;93357.75;5074519;28;20233;-82
2020/12/05 08:36:32;;;;;;;25.23;15.52;;;6.70;83.30;;;6.01;67.22;93378.59;5075154;28;20182;-82
2020/12/05 08:39:09;;;;;;;25.95;15.45;;;6.70;83.30;;;6.04;66.98;93374.78;5058873;28;20260;-82
2020/12/05 08:41:53;;;;;;;25.65;15.05;;;6.80;83.30;;;6.08;67.70;93378.59;5058356;28;20269;-82
2020/12/05 08:44:22;;;;;;;27.25;15.50;;;6.80;83.30;;;6.09;67.40;93385.38;5075767;28;20214;-81
2020/12/05 08:47:09;;;;;;;24.90;15.93;;;6.90;83.40;;;6.18;67.53;93381.56;5073101;28;20218;-82
2020/12/05 08:49:38;;;;;;;27.90;15.90;;;6.80;83.30;;;6.20;67.50;93382.19;5061029;28;20727;-82
2020/12/05 08:52:06;;;;;;;28.85;15.93;;;6.90;83.90;;;6.28;67.24;93382.97;5071480;28;20275;-82
2020/12/05 08:54:51;;;;;;;28.13;17.25;;;6.90;83.50;;;6.31;67.34;93391.19;5071060;28;20212;-82
2020/12/05 08:57:19;;;;;;;27.77;15.23;;;7.00;83.50;;;6.46;67.72;93409.19;5069808;28;20192;-81
2020/12/05 08:59:47;;;;;;;26.48;15.95;;;7.00;83.70;;;6.60;67.68;93401.34;5049058;28;20254;-82
2020/12/05 09:02:15;;;;;;;26.00;15.35;;;7.10;83.90;;;6.71;67.60;93395.47;5074687;28;20535;-82
2020/12/05 09:04:42;;;;;;;26.10;15.45;;;7.10;83.90;;;6.83;66.82;93411.28;5090728;28;20313;-82
2020/12/05 09:07:18;;;;;;;24.15;15.73;;;7.30;84.00;;;6.92;67.03;93401.44;5091408;28;20207;-82
2020/12/05 09:09:47;;;;;;;26.13;16.15;;;7.30;84.00;;;7.03;66.85;93417.22;5075000;28;20272;-82
2020/12/05 09:12:17;;;;;;;29.05;16.50;;;7.40;83.80;;;7.08;66.73;93418.41;5057901;28;20202;-83
2020/12/05 09:14:50;;;;;;;26.15;15.75;;;7.50;83.80;;;7.19;66.45;93426.38;5070566;28;20246;-82
2020/12/05 09:17:26;;;;;;;22.42;14.13;;;7.60;83.80;;;7.33;66.72;93421.09;5060641;28;20234;-82
2020/12/05 09:20:19;;;;;;;25.65;15.65;;;7.70;83.70;;;7.44;66.76;93419.66;5074244;28;20222;-81
2020/12/05 09:22:52;;;;;;;25.20;15.00;;;7.80;83.60;;;7.59;66.56;93425.41;5073321;28;20566;-82
2020/12/05 09:25:36;;;;;;;23.42;13.85;;;7.90;83.80;;;7.67;66.66;93416.50;5066768;28;20226;-81
2020/12/05 09:28:10;;;;;;;24.90;15.27;;;8.00;83.60;;;7.81;66.38;93438.91;5072166;28;20286;-82
2020/12/05 09:30:37;;;;;;;24.88;15.75;;;8.10;83.60;;;7.88;65.70;93441.44;5075243;28;20237;-83
2020/12/05 09:33:13;;;;;;;24.92;15.35;;;8.20;83.60;;;7.97;65.96;93447.22;5077950;28;20214;-81
2020/12/05 09:35:40;;;;;;;27.15;15.93;;;8.30;83.30;;;8.01;65.39;93451.81;5062478;28;20212;-81
2020/12/05 09:38:06;;;;;;;23.92;14.82;;;8.40;83.10;;;8.06;65.30;93450.38;5077723;28;20243;-81
2020/12/05 09:40:33;;;;;;;23.60;14.30;;;8.40;83.00;;;8.12;65.47;93449.53;5061862;28;20221;-82
2020/12/05 09:43:01;;;;;;;21.33;12.85;;;8.50;83.10;;;8.15;65.09;93449.91;5061939;28;20217;-81
2020/12/05 09:45:28;;;;;;;21.95;13.57;;;8.60;82.90;;;8.18;65.00;93456.53;5061547;28;20309;-81
2020/12/05 09:47:55;;;;;;;23.55;14.55;;;8.60;82.70;;;8.19;65.06;93458.13;5078099;28;20297;-81
2020/12/05 09:50:22;;;;;;;22.42;13.77;;;8.70;82.60;;;8.24;64.96;93466.13;5078567;28;20222;-82
2020/12/05 09:52:49;;;;;;;21.60;13.70;;;8.70;82.40;;;8.26;64.81;93464.06;5078512;28;20187;-81
2020/12/05 09:55:16;;;;;;;24.08;14.10;;;8.70;82.40;;;8.30;64.88;93465.25;5078403;28;20268;-82
2020/12/05 09:57:44;;;;;;;23.40;14.82;;;8.80;82.30;;;8.37;64.98;93473.03;5076206;28;20273;-80
2020/12/05 10:00:12;;;;;;;21.45;13.50;;;8.80;82.30;;;8.38;64.72;93460.78;5078058;28;20310;-81
2020/12/05 10:02:41;;;;;;;20.70;13.70;;;8.90;82.30;;;8.47;64.78;93470.78;5073615;28;20219;-81
2020/12/05 10:05:10;;;;;;;21.75;13.63;;;8.90;82.30;;;8.54;64.32;93469.91;5069968;28;20215;-81
2020/12/05 10:07:39;;;;;;;21.75;13.63;;;8.90;82.20;;;8.58;64.46;93464.06;5059350;28;20261;-82
2020/12/05 10:10:10;;;;;;;22.15;13.38;;;9.00;82.20;;;8.60;64.34;93467.22;5061742;28;20219;-81
2020/12/05 10:12:38;;;;;;;24.63;13.93;;;9.10;82.00;;;8.59;64.11;93460.44;5061528;28;20194;-83
2020/12/05 10:15:06;;;;;;;21.77;13.40;;;9.20;82.00;;;8.67;64.17;93461.97;5094599;28;20285;-81
2020/12/05 10:17:33;;;;;;;23.40;14.90;;;9.10;81.90;;;8.67;63.52;93463.75;5061157;28;20242;-82
2020/12/05 10:20:00;;;;;;;26.45;14.80;;;9.20;81.60;;;8.66;63.43;93462.97;5077301;28;20225;-82
2020/12/05 10:22:26;;;;;;;21.13;13.63;;;9.20;81.50;;;8.69;63.84;93474.81;5094920;28;20203;-82
2020/12/05 10:24:53;;;;;;;21.60;14.35;;;9.20;81.40;;;8.72;63.57;93471.78;5078101;28;20217;-82
2020/12/05 10:27:20;;;;;;;20.92;13.77;;;9.30;81.60;;;8.77;63.97;93458.84;5077421;28;20214;-81
2020/12/05 10:29:47;;;;;;;24.98;14.73;;;9.20;81.50;;;8.81;63.81;93462.63;5077768;28;20264;-82
2020/12/05 10:32:14;;;;;;;24.70;14.57;;;9.30;81.60;;;8.85;63.30;93458.56;5077568;28;20222;-82
2020/12/05 10:34:41;;;;;;;21.65;13.75;;;9.30;81.50;;;8.90;63.94;93471.78;5060896;28;20313;-83
2020/12/05 10:37:08;;;;;;;23.92;14.52;;;9.40;81.60;;;8.90;63.31;93465.75;5077653;28;20240;-84